Aérodrome :
LOGIN :

S'inscrire | Disclaimer

   EN    FR    IT 

 










Légende :    VFR   VFR Marginal   IFR   IFR Intensif   IFR Très Intensif
Visi : 
Plafond : 
>= 8 km
>= 3000ft
5 à 8 km
1000 à 3000 ft
1500m à 5 km
500 à 1000 ft
800 à 1500m
200 à 500 ft
< 800m
< 200 ft
Symboles :   Orages  Brouillard  Fortes neiges  Fortes précipitations  Vent > 20 kt
SIGMETs :   Divers  Orages  Givrage  Turbulence  Onde Orograph.  Cendres Volcan.






- Altitude de l'aérodrome : 1830 ft


EBLB - Butgenbach Elsenborn

DERNIER METAR :
  • 260425Z AUTO 28009KT 4600 -RA OVC003/// 07/07 Q0995 YLO

METARs EXPIRÉS :
  • 260355Z AUTO 28011KT 6000 DZ OVC003/// 07/07 Q0994 YLO
  • 260325Z AUTO 27011G23KT 5000 -RA OVC005/// 07/06 Q0995 YLO
  • 260255Z AUTO 27013KT 4900 RA OVC006/// 07/06 Q0994 YLO
  • 260225Z AUTO 25013KT 2300 RA OVC005/// 06/06 Q0994 YLO
  • 260155Z AUTO 26014G26KT 6000 -RA OVC006/// 06/05 Q0995 YLO

Prévision TAF périmée.



MET'MAP, la Météo Aéronautique d'un coup d'oeil ! - Copyright ORBIFLY Décembre 2007 - Disclaimer

ORBIFLY MET'MAP TEAM :

Programmation & Développement : Alexandra Zaïnal
Sur une idée originale de : Baudouin d'Aumeries
Assistance à la programmation : Marc-Olivier Méhu
Soutien technique & logistique : Manuel Goepfert

Contact : metmap@orbifly.com




SOURCES & CREDITS :

   NOAA